sensor_id;sensor_type;location;lat;lon;timestamp;P1;durP1;ratioP1;P2;durP2;ratioP2
52208;SDS011;38507;53.132;6.394;2022-08-16T00:01:54;15.55;;;12.15;;
52208;SDS011;38507;53.132;6.394;2022-08-16T00:04:20;16.00;;;12.90;;
52208;SDS011;38507;53.132;6.394;2022-08-16T00:06:46;16.05;;;12.63;;
52208;SDS011;38507;53.132;6.394;2022-08-16T00:09:12;16.38;;;12.38;;
52208;SDS011;38507;53.132;6.394;2022-08-16T00:11:38;18.10;;;13.10;;
52208;SDS011;38507;53.132;6.394;2022-08-16T00:14:05;13.52;;;11.80;;
52208;SDS011;38507;53.132;6.394;2022-08-16T00:16:33;13.60;;;12.15;;
52208;SDS011;38507;53.132;6.394;2022-08-16T00:18:59;16.08;;;12.88;;
52208;SDS011;38507;53.132;6.394;2022-08-16T00:21:25;14.65;;;12.25;;
52208;SDS011;38507;53.132;6.394;2022-08-16T00:23:51;18.55;;;13.02;;
52208;SDS011;38507;53.132;6.394;2022-08-16T00:26:17;16.75;;;13.27;;
52208;SDS011;38507;53.132;6.394;2022-08-16T00:28:43;14.70;;;11.85;;
52208;SDS011;38507;53.132;6.394;2022-08-16T00:31:08;16.77;;;12.32;;
52208;SDS011;38507;53.132;6.394;2022-08-16T00:33:34;14.15;;;11.30;;
52208;SDS011;38507;53.132;6.394;2022-08-16T00:36:00;19.45;;;11.25;;
52208;SDS011;38507;53.132;6.394;2022-08-16T00:38:25;12.75;;;11.02;;
52208;SDS011;38507;53.132;6.394;2022-08-16T00:40:52;14.68;;;12.02;;
52208;SDS011;38507;53.132;6.394;2022-08-16T00:43:20;14.13;;;11.80;;
52208;SDS011;38507;53.132;6.394;2022-08-16T00:45:53;15.30;;;12.98;;
52208;SDS011;38507;53.132;6.394;2022-08-16T00:48:44;14.85;;;11.52;;
52208;SDS011;38507;53.132;6.394;2022-08-16T00:51:10;19.33;;;11.70;;
52208;SDS011;38507;53.132;6.394;2022-08-16T00:53:37;17.95;;;11.38;;
52208;SDS011;38507;53.132;6.394;2022-08-16T00:56:04;13.95;;;10.90;;
52208;SDS011;38507;53.132;6.394;2022-08-16T00:58:34;15.15;;;11.98;;
52208;SDS011;38507;53.132;6.394;2022-08-16T01:01:05;15.38;;;11.88;;
52208;SDS011;38507;53.132;6.394;2022-08-16T01:03:32;16.40;;;12.27;;
52208;SDS011;38507;53.132;6.394;2022-08-16T01:05:59;13.00;;;11.30;;
52208;SDS011;38507;53.132;6.394;2022-08-16T01:08:26;16.55;;;10.90;;
52208;SDS011;38507;53.132;6.394;2022-08-16T01:10:52;17.23;;;12.30;;
52208;SDS011;38507;53.132;6.394;2022-08-16T01:13:21;22.17;;;12.38;;
52208;SDS011;38507;53.132;6.394;2022-08-16T01:15:50;16.85;;;12.48;;
52208;SDS011;38507;53.132;6.394;2022-08-16T01:18:22;13.85;;;11.63;;
52208;SDS011;38507;53.132;6.394;2022-08-16T01:20:54;15.43;;;12.35;;
52208;SDS011;38507;53.132;6.394;2022-08-16T01:26:16;16.27;;;12.48;;
52208;SDS011;38507;53.132;6.394;2022-08-16T01:28:42;15.05;;;13.43;;
52208;SDS011;38507;53.132;6.394;2022-08-16T01:31:09;20.50;;;12.00;;
52208;SDS011;38507;53.132;6.394;2022-08-16T01:33:37;15.27;;;13.15;;
52208;SDS011;38507;53.132;6.394;2022-08-16T01:36:04;17.98;;;13.07;;
52208;SDS011;38507;53.132;6.394;2022-08-16T01:41:10;17.40;;;13.18;;
52208;SDS011;38507;53.132;6.394;2022-08-16T01:43:39;15.05;;;12.15;;
52208;SDS011;38507;53.132;6.394;2022-08-16T01:46:19;18.10;;;13.18;;
52208;SDS011;38507;53.132;6.394;2022-08-16T01:48:56;18.10;;;13.50;;
52208;SDS011;38507;53.132;6.394;2022-08-16T01:51:25;17.50;;;14.32;;
52208;SDS011;38507;53.132;6.394;2022-08-16T01:53:52;19.42;;;14.30;;
52208;SDS011;38507;53.132;6.394;2022-08-16T01:56:18;18.17;;;13.65;;
52208;SDS011;38507;53.132;6.394;2022-08-16T01:58:45;16.05;;;12.70;;
52208;SDS011;38507;53.132;6.394;2022-08-16T02:01:11;15.63;;;13.35;;
52208;SDS011;38507;53.132;6.394;2022-08-16T02:03:37;18.92;;;13.55;;
52208;SDS011;38507;53.132;6.394;2022-08-16T02:06:03;17.88;;;14.25;;
52208;SDS011;38507;53.132;6.394;2022-08-16T02:08:29;16.55;;;13.57;;
52208;SDS011;38507;53.132;6.394;2022-08-16T02:10:55;19.77;;;13.88;;
52208;SDS011;38507;53.132;6.394;2022-08-16T02:13:21;17.17;;;13.10;;
52208;SDS011;38507;53.132;6.394;2022-08-16T02:15:47;18.38;;;12.93;;
52208;SDS011;38507;53.132;6.394;2022-08-16T02:18:14;19.35;;;14.65;;
52208;SDS011;38507;53.132;6.394;2022-08-16T02:20:40;16.73;;;13.85;;
52208;SDS011;38507;53.132;6.394;2022-08-16T02:23:10;18.60;;;14.07;;
52208;SDS011;38507;53.132;6.394;2022-08-16T02:25:36;18.05;;;14.98;;
52208;SDS011;38507;53.132;6.394;2022-08-16T02:28:02;19.33;;;13.48;;
52208;SDS011;38507;53.132;6.394;2022-08-16T02:30:28;20.25;;;13.75;;
52208;SDS011;38507;53.132;6.394;2022-08-16T02:32:55;16.33;;;14.15;;
52208;SDS011;38507;53.132;6.394;2022-08-16T02:35:23;23.23;;;15.32;;
52208;SDS011;38507;53.132;6.394;2022-08-16T02:37:50;15.75;;;13.68;;
52208;SDS011;38507;53.132;6.394;2022-08-16T02:40:17;19.70;;;15.68;;
52208;SDS011;38507;53.132;6.394;2022-08-16T02:42:44;20.95;;;14.52;;
52208;SDS011;38507;53.132;6.394;2022-08-16T02:45:11;18.88;;;15.73;;
52208;SDS011;38507;53.132;6.394;2022-08-16T02:47:37;18.67;;;15.77;;
52208;SDS011;38507;53.132;6.394;2022-08-16T02:50:03;18.75;;;14.93;;
52208;SDS011;38507;53.132;6.394;2022-08-16T02:52:30;17.50;;;13.93;;
52208;SDS011;38507;53.132;6.394;2022-08-16T02:54:56;21.98;;;15.93;;
52208;SDS011;38507;53.132;6.394;2022-08-16T02:57:22;22.20;;;15.10;;
52208;SDS011;38507;53.132;6.394;2022-08-16T02:59:48;21.33;;;15.02;;
52208;SDS011;38507;53.132;6.394;2022-08-16T03:02:14;18.55;;;16.02;;
52208;SDS011;38507;53.132;6.394;2022-08-16T03:04:41;19.20;;;14.95;;
52208;SDS011;38507;53.132;6.394;2022-08-16T03:07:07;21.55;;;16.42;;
52208;SDS011;38507;53.132;6.394;2022-08-16T03:09:33;19.23;;;15.35;;
52208;SDS011;38507;53.132;6.394;2022-08-16T03:11:59;20.17;;;15.35;;
52208;SDS011;38507;53.132;6.394;2022-08-16T03:14:25;21.67;;;16.15;;
52208;SDS011;38507;53.132;6.394;2022-08-16T03:16:51;20.25;;;16.00;;
52208;SDS011;38507;53.132;6.394;2022-08-16T03:19:18;21.80;;;16.58;;
52208;SDS011;38507;53.132;6.394;2022-08-16T03:21:43;19.25;;;17.25;;
52208;SDS011;38507;53.132;6.394;2022-08-16T03:24:10;19.90;;;16.05;;
52208;SDS011;38507;53.132;6.394;2022-08-16T03:26:36;20.55;;;18.05;;
52208;SDS011;38507;53.132;6.394;2022-08-16T03:29:02;23.23;;;17.92;;
52208;SDS011;38507;53.132;6.394;2022-08-16T03:31:28;21.92;;;18.23;;
52208;SDS011;38507;53.132;6.394;2022-08-16T03:33:53;20.13;;;18.00;;
52208;SDS011;38507;53.132;6.394;2022-08-16T03:36:19;22.83;;;19.55;;
52208;SDS011;38507;53.132;6.394;2022-08-16T03:38:45;21.10;;;18.58;;
52208;SDS011;38507;53.132;6.394;2022-08-16T03:41:11;27.27;;;19.63;;
52208;SDS011;38507;53.132;6.394;2022-08-16T03:43:37;24.45;;;17.73;;
52208;SDS011;38507;53.132;6.394;2022-08-16T03:46:03;19.70;;;17.58;;
52208;SDS011;38507;53.132;6.394;2022-08-16T03:48:30;22.58;;;18.40;;
52208;SDS011;38507;53.132;6.394;2022-08-16T03:50:59;23.90;;;19.15;;
52208;SDS011;38507;53.132;6.394;2022-08-16T03:53:27;22.58;;;18.27;;
52208;SDS011;38507;53.132;6.394;2022-08-16T03:55:53;23.58;;;18.08;;
52208;SDS011;38507;53.132;6.394;2022-08-16T03:58:19;26.08;;;18.30;;
52208;SDS011;38507;53.132;6.394;2022-08-16T04:00:45;23.75;;;18.92;;
52208;SDS011;38507;53.132;6.394;2022-08-16T04:03:13;27.27;;;18.75;;
52208;SDS011;38507;53.132;6.394;2022-08-16T04:05:40;21.15;;;17.92;;
52208;SDS011;38507;53.132;6.394;2022-08-16T04:08:08;21.45;;;18.38;;
52208;SDS011;38507;53.132;6.394;2022-08-16T04:10:34;26.05;;;18.17;;
52208;SDS011;38507;53.132;6.394;2022-08-16T04:12:59;20.23;;;18.10;;
52208;SDS011;38507;53.132;6.394;2022-08-16T04:15:25;23.52;;;19.45;;
52208;SDS011;38507;53.132;6.394;2022-08-16T04:17:53;22.38;;;18.42;;
52208;SDS011;38507;53.132;6.394;2022-08-16T04:20:19;27.15;;;18.30;;
52208;SDS011;38507;53.132;6.394;2022-08-16T04:22:45;21.27;;;18.00;;
52208;SDS011;38507;53.132;6.394;2022-08-16T04:25:11;20.85;;;16.00;;
52208;SDS011;38507;53.132;6.394;2022-08-16T04:27:37;23.60;;;18.33;;
52208;SDS011;38507;53.132;6.394;2022-08-16T04:30:05;21.35;;;19.10;;
52208;SDS011;38507;53.132;6.394;2022-08-16T04:32:34;22.90;;;18.73;;
52208;SDS011;38507;53.132;6.394;2022-08-16T04:34:59;23.90;;;18.92;;
52208;SDS011;38507;53.132;6.394;2022-08-16T04:37:25;19.63;;;17.30;;
52208;SDS011;38507;53.132;6.394;2022-08-16T04:39:51;22.30;;;17.67;;
52208;SDS011;38507;53.132;6.394;2022-08-16T04:42:17;22.17;;;18.80;;
52208;SDS011;38507;53.132;6.394;2022-08-16T04:44:43;23.83;;;17.85;;
52208;SDS011;38507;53.132;6.394;2022-08-16T04:47:10;22.35;;;19.85;;
52208;SDS011;38507;53.132;6.394;2022-08-16T04:49:35;22.20;;;19.13;;
52208;SDS011;38507;53.132;6.394;2022-08-16T04:52:01;26.08;;;19.88;;
52208;SDS011;38507;53.132;6.394;2022-08-16T04:54:27;24.77;;;18.33;;
52208;SDS011;38507;53.132;6.394;2022-08-16T04:56:53;26.60;;;18.05;;
52208;SDS011;38507;53.132;6.394;2022-08-16T04:59:18;24.45;;;18.25;;
52208;SDS011;38507;53.132;6.394;2022-08-16T05:01:44;22.15;;;17.35;;
52208;SDS011;38507;53.132;6.394;2022-08-16T05:04:09;20.85;;;18.05;;
52208;SDS011;38507;53.132;6.394;2022-08-16T05:06:35;22.58;;;17.23;;
52208;SDS011;38507;53.132;6.394;2022-08-16T05:09:01;22.35;;;15.60;;
52208;SDS011;38507;53.132;6.394;2022-08-16T05:11:27;23.00;;;17.27;;
52208;SDS011;38507;53.132;6.394;2022-08-16T05:13:54;21.17;;;16.33;;
52208;SDS011;38507;53.132;6.394;2022-08-16T05:16:22;21.55;;;16.60;;
52208;SDS011;38507;53.132;6.394;2022-08-16T05:18:51;18.15;;;16.25;;
52208;SDS011;38507;53.132;6.394;2022-08-16T05:21:19;22.95;;;17.02;;
52208;SDS011;38507;53.132;6.394;2022-08-16T05:23:45;19.90;;;17.17;;
52208;SDS011;38507;53.132;6.394;2022-08-16T05:26:11;17.92;;;14.82;;
52208;SDS011;38507;53.132;6.394;2022-08-16T05:28:36;19.50;;;16.38;;
52208;SDS011;38507;53.132;6.394;2022-08-16T05:31:02;21.33;;;16.58;;
52208;SDS011;38507;53.132;6.394;2022-08-16T05:33:28;20.95;;;16.83;;
52208;SDS011;38507;53.132;6.394;2022-08-16T05:35:54;21.77;;;16.58;;
52208;SDS011;38507;53.132;6.394;2022-08-16T05:38:21;20.73;;;16.98;;
52208;SDS011;38507;53.132;6.394;2022-08-16T05:40:53;23.98;;;17.83;;
52208;SDS011;38507;53.132;6.394;2022-08-16T05:43:20;21.23;;;17.05;;
52208;SDS011;38507;53.132;6.394;2022-08-16T05:45:46;22.20;;;17.75;;
52208;SDS011;38507;53.132;6.394;2022-08-16T05:48:12;19.98;;;17.40;;
52208;SDS011;38507;53.132;6.394;2022-08-16T05:50:38;21.30;;;17.73;;
52208;SDS011;38507;53.132;6.394;2022-08-16T05:53:04;17.80;;;15.95;;
52208;SDS011;38507;53.132;6.394;2022-08-16T05:55:30;18.40;;;16.30;;
52208;SDS011;38507;53.132;6.394;2022-08-16T05:57:55;18.92;;;16.75;;
52208;SDS011;38507;53.132;6.394;2022-08-16T06:00:21;24.80;;;17.75;;
52208;SDS011;38507;53.132;6.394;2022-08-16T06:02:47;20.90;;;17.42;;
52208;SDS011;38507;53.132;6.394;2022-08-16T06:05:12;19.48;;;16.15;;
52208;SDS011;38507;53.132;6.394;2022-08-16T06:07:38;20.67;;;16.33;;
52208;SDS011;38507;53.132;6.394;2022-08-16T06:10:04;20.65;;;17.02;;
52208;SDS011;38507;53.132;6.394;2022-08-16T06:12:30;21.83;;;17.02;;
52208;SDS011;38507;53.132;6.394;2022-08-16T06:14:57;20.75;;;16.73;;
52208;SDS011;38507;53.132;6.394;2022-08-16T06:17:29;19.40;;;17.17;;
52208;SDS011;38507;53.132;6.394;2022-08-16T06:19:54;22.30;;;17.65;;
52208;SDS011;38507;53.132;6.394;2022-08-16T06:22:20;19.75;;;17.10;;
52208;SDS011;38507;53.132;6.394;2022-08-16T06:24:46;21.83;;;18.08;;
52208;SDS011;38507;53.132;6.394;2022-08-16T06:27:12;21.05;;;17.88;;
52208;SDS011;38507;53.132;6.394;2022-08-16T06:29:37;21.02;;;17.17;;
52208;SDS011;38507;53.132;6.394;2022-08-16T06:32:03;21.25;;;16.42;;
52208;SDS011;38507;53.132;6.394;2022-08-16T06:34:29;26.08;;;17.98;;
52208;SDS011;38507;53.132;6.394;2022-08-16T06:36:56;20.35;;;17.63;;
52208;SDS011;38507;53.132;6.394;2022-08-16T06:39:22;22.02;;;17.65;;
52208;SDS011;38507;53.132;6.394;2022-08-16T06:41:47;24.63;;;17.83;;
52208;SDS011;38507;53.132;6.394;2022-08-16T06:44:13;20.63;;;17.80;;
52208;SDS011;38507;53.132;6.394;2022-08-16T06:46:39;21.90;;;17.33;;
52208;SDS011;38507;53.132;6.394;2022-08-16T06:49:09;24.33;;;18.20;;
52208;SDS011;38507;53.132;6.394;2022-08-16T06:51:37;20.35;;;17.50;;
52208;SDS011;38507;53.132;6.394;2022-08-16T06:54:04;20.48;;;17.30;;
52208;SDS011;38507;53.132;6.394;2022-08-16T06:56:30;20.55;;;18.35;;
52208;SDS011;38507;53.132;6.394;2022-08-16T06:58:56;24.92;;;18.02;;
52208;SDS011;38507;53.132;6.394;2022-08-16T07:01:22;25.35;;;19.95;;
52208;SDS011;38507;53.132;6.394;2022-08-16T07:03:48;26.50;;;18.52;;
52208;SDS011;38507;53.132;6.394;2022-08-16T07:06:14;23.50;;;18.73;;
52208;SDS011;38507;53.132;6.394;2022-08-16T07:08:42;24.33;;;20.25;;
52208;SDS011;38507;53.132;6.394;2022-08-16T07:11:08;22.65;;;19.63;;
52208;SDS011;38507;53.132;6.394;2022-08-16T07:13:35;23.80;;;19.95;;
52208;SDS011;38507;53.132;6.394;2022-08-16T07:16:02;23.45;;;19.00;;
52208;SDS011;38507;53.132;6.394;2022-08-16T07:18:30;25.17;;;18.17;;
52208;SDS011;38507;53.132;6.394;2022-08-16T07:20:56;20.20;;;18.00;;
52208;SDS011;38507;53.132;6.394;2022-08-16T07:23:22;22.30;;;17.73;;
52208;SDS011;38507;53.132;6.394;2022-08-16T07:25:48;23.00;;;17.58;;
52208;SDS011;38507;53.132;6.394;2022-08-16T07:28:14;22.45;;;17.17;;
52208;SDS011;38507;53.132;6.394;2022-08-16T07:30:42;22.05;;;17.25;;
52208;SDS011;38507;53.132;6.394;2022-08-16T07:33:09;20.80;;;17.02;;
52208;SDS011;38507;53.132;6.394;2022-08-16T07:35:35;21.52;;;17.65;;
52208;SDS011;38507;53.132;6.394;2022-08-16T07:38:02;22.88;;;19.13;;
52208;SDS011;38507;53.132;6.394;2022-08-16T07:40:30;22.25;;;18.75;;
52208;SDS011;38507;53.132;6.394;2022-08-16T07:42:57;30.23;;;19.60;;
52208;SDS011;38507;53.132;6.394;2022-08-16T07:45:22;24.70;;;18.80;;
52208;SDS011;38507;53.132;6.394;2022-08-16T07:47:48;19.95;;;17.80;;
52208;SDS011;38507;53.132;6.394;2022-08-16T07:50:14;20.58;;;16.75;;
52208;SDS011;38507;53.132;6.394;2022-08-16T07:52:41;20.90;;;17.98;;
52208;SDS011;38507;53.132;6.394;2022-08-16T07:55:08;21.90;;;18.20;;
52208;SDS011;38507;53.132;6.394;2022-08-16T07:57:35;18.15;;;16.17;;
52208;SDS011;38507;53.132;6.394;2022-08-16T08:00:01;20.42;;;16.23;;
52208;SDS011;38507;53.132;6.394;2022-08-16T08:02:28;26.73;;;16.63;;
52208;SDS011;38507;53.132;6.394;2022-08-16T08:04:54;20.42;;;16.35;;
52208;SDS011;38507;53.132;6.394;2022-08-16T08:07:20;23.98;;;15.98;;
52208;SDS011;38507;53.132;6.394;2022-08-16T08:09:46;21.83;;;15.32;;
52208;SDS011;38507;53.132;6.394;2022-08-16T08:12:12;18.90;;;15.70;;
52208;SDS011;38507;53.132;6.394;2022-08-16T08:14:38;22.73;;;16.27;;
52208;SDS011;38507;53.132;6.394;2022-08-16T08:17:04;17.35;;;14.95;;
52208;SDS011;38507;53.132;6.394;2022-08-16T08:19:31;17.73;;;13.68;;
52208;SDS011;38507;53.132;6.394;2022-08-16T08:21:58;15.48;;;13.57;;
52208;SDS011;38507;53.132;6.394;2022-08-16T08:24:23;15.00;;;12.25;;
52208;SDS011;38507;53.132;6.394;2022-08-16T08:26:49;16.55;;;11.60;;
52208;SDS011;38507;53.132;6.394;2022-08-16T08:29:15;15.23;;;11.95;;
52208;SDS011;38507;53.132;6.394;2022-08-16T08:31:41;15.60;;;12.02;;
52208;SDS011;38507;53.132;6.394;2022-08-16T08:34:06;15.40;;;11.35;;
52208;SDS011;38507;53.132;6.394;2022-08-16T08:36:33;16.83;;;12.20;;
52208;SDS011;38507;53.132;6.394;2022-08-16T08:39:03;14.70;;;11.57;;
52208;SDS011;38507;53.132;6.394;2022-08-16T08:41:29;17.50;;;12.20;;
52208;SDS011;38507;53.132;6.394;2022-08-16T08:43:55;26.95;;;11.43;;
52208;SDS011;38507;53.132;6.394;2022-08-16T08:46:22;13.57;;;10.82;;
52208;SDS011;38507;53.132;6.394;2022-08-16T08:48:49;14.30;;;11.40;;
52208;SDS011;38507;53.132;6.394;2022-08-16T08:51:16;17.02;;;10.95;;
52208;SDS011;38507;53.132;6.394;2022-08-16T08:53:43;13.35;;;11.00;;
52208;SDS011;38507;53.132;6.394;2022-08-16T08:56:10;17.20;;;10.30;;
52208;SDS011;38507;53.132;6.394;2022-08-16T08:58:37;16.45;;;10.18;;
52208;SDS011;38507;53.132;6.394;2022-08-16T09:01:04;12.45;;;9.90;;
52208;SDS011;38507;53.132;6.394;2022-08-16T09:03:31;14.38;;;10.50;;
52208;SDS011;38507;53.132;6.394;2022-08-16T09:05:58;16.20;;;11.13;;
52208;SDS011;38507;53.132;6.394;2022-08-16T09:08:24;12.80;;;11.10;;
52208;SDS011;38507;53.132;6.394;2022-08-16T09:10:54;17.15;;;12.60;;
52208;SDS011;38507;53.132;6.394;2022-08-16T09:13:21;15.32;;;11.80;;
52208;SDS011;38507;53.132;6.394;2022-08-16T09:15:47;14.63;;;12.30;;
52208;SDS011;38507;53.132;6.394;2022-08-16T09:18:13;12.80;;;10.05;;
52208;SDS011;38507;53.132;6.394;2022-08-16T09:20:41;17.40;;;11.27;;
52208;SDS011;38507;53.132;6.394;2022-08-16T09:23:08;12.32;;;9.60;;
52208;SDS011;38507;53.132;6.394;2022-08-16T09:25:34;15.55;;;11.52;;
52208;SDS011;38507;53.132;6.394;2022-08-16T09:28:00;13.57;;;9.38;;
52208;SDS011;38507;53.132;6.394;2022-08-16T09:30:26;12.85;;;9.90;;
52208;SDS011;38507;53.132;6.394;2022-08-16T09:32:52;12.80;;;9.48;;
52208;SDS011;38507;53.132;6.394;2022-08-16T09:35:19;14.18;;;10.63;;
52208;SDS011;38507;53.132;6.394;2022-08-16T09:37:45;15.27;;;11.98;;
52208;SDS011;38507;53.132;6.394;2022-08-16T09:40:11;12.90;;;10.65;;
52208;SDS011;38507;53.132;6.394;2022-08-16T09:42:38;17.23;;;10.60;;
52208;SDS011;38507;53.132;6.394;2022-08-16T09:45:05;13.00;;;11.05;;
52208;SDS011;38507;53.132;6.394;2022-08-16T09:47:33;15.23;;;10.48;;
52208;SDS011;38507;53.132;6.394;2022-08-16T09:50:07;14.30;;;11.35;;
52208;SDS011;38507;53.132;6.394;2022-08-16T09:52:35;15.55;;;10.10;;
52208;SDS011;38507;53.132;6.394;2022-08-16T09:55:08;14.98;;;9.30;;
52208;SDS011;38507;53.132;6.394;2022-08-16T09:57:35;10.40;;;8.87;;
52208;SDS011;38507;53.132;6.394;2022-08-16T10:00:05;16.65;;;10.73;;
52208;SDS011;38507;53.132;6.394;2022-08-16T10:02:33;17.83;;;9.63;;
52208;SDS011;38507;53.132;6.394;2022-08-16T10:04:58;15.35;;;11.30;;
52208;SDS011;38507;53.132;6.394;2022-08-16T10:07:25;12.07;;;8.70;;
52208;SDS011;38507;53.132;6.394;2022-08-16T10:09:53;11.15;;;8.95;;
52208;SDS011;38507;53.132;6.394;2022-08-16T10:12:18;12.05;;;7.00;;
52208;SDS011;38507;53.132;6.394;2022-08-16T10:17:29;13.65;;;9.15;;
52208;SDS011;38507;53.132;6.394;2022-08-16T10:19:54;12.32;;;8.88;;
52208;SDS011;38507;53.132;6.394;2022-08-16T10:22:20;13.88;;;8.55;;
52208;SDS011;38507;53.132;6.394;2022-08-16T10:24:46;16.50;;;7.47;;
52208;SDS011;38507;53.132;6.394;2022-08-16T10:27:12;14.88;;;7.63;;
52208;SDS011;38507;53.132;6.394;2022-08-16T10:29:38;13.05;;;9.02;;
52208;SDS011;38507;53.132;6.394;2022-08-16T10:32:04;8.43;;;7.55;;
52208;SDS011;38507;53.132;6.394;2022-08-16T10:34:30;11.68;;;8.77;;
52208;SDS011;38507;53.132;6.394;2022-08-16T10:36:56;13.27;;;8.02;;
52208;SDS011;38507;53.132;6.394;2022-08-16T10:39:22;12.75;;;8.32;;
52208;SDS011;38507;53.132;6.394;2022-08-16T10:41:48;10.57;;;8.95;;
52208;SDS011;38507;53.132;6.394;2022-08-16T10:44:13;10.80;;;7.70;;
52208;SDS011;38507;53.132;6.394;2022-08-16T10:46:40;10.25;;;8.02;;
52208;SDS011;38507;53.132;6.394;2022-08-16T10:49:07;13.95;;;7.82;;
52208;SDS011;38507;53.132;6.394;2022-08-16T10:51:34;11.88;;;7.07;;
52208;SDS011;38507;53.132;6.394;2022-08-16T10:54:02;10.90;;;7.22;;
52208;SDS011;38507;53.132;6.394;2022-08-16T10:56:28;12.55;;;7.30;;
52208;SDS011;38507;53.132;6.394;2022-08-16T10:58:54;12.00;;;6.45;;
52208;SDS011;38507;53.132;6.394;2022-08-16T11:01:22;10.85;;;6.63;;
52208;SDS011;38507;53.132;6.394;2022-08-16T11:03:50;8.98;;;6.70;;
52208;SDS011;38507;53.132;6.394;2022-08-16T11:06:17;11.05;;;6.13;;
52208;SDS011;38507;53.132;6.394;2022-08-16T11:08:43;9.95;;;5.40;;
52208;SDS011;38507;53.132;6.394;2022-08-16T11:11:09;8.43;;;5.45;;
52208;SDS011;38507;53.132;6.394;2022-08-16T11:13:37;9.02;;;5.97;;
52208;SDS011;38507;53.132;6.394;2022-08-16T11:16:03;9.05;;;5.85;;
52208;SDS011;38507;53.132;6.394;2022-08-16T11:18:30;9.75;;;6.20;;
52208;SDS011;38507;53.132;6.394;2022-08-16T11:20:56;8.43;;;5.30;;
52208;SDS011;38507;53.132;6.394;2022-08-16T11:23:23;9.70;;;5.47;;
52208;SDS011;38507;53.132;6.394;2022-08-16T11:25:50;11.13;;;6.00;;
52208;SDS011;38507;53.132;6.394;2022-08-16T11:28:16;9.38;;;6.00;;
52208;SDS011;38507;53.132;6.394;2022-08-16T11:30:44;8.57;;;5.22;;
52208;SDS011;38507;53.132;6.394;2022-08-16T11:33:10;15.15;;;6.03;;
52208;SDS011;38507;53.132;6.394;2022-08-16T11:35:37;8.63;;;5.70;;
52208;SDS011;38507;53.132;6.394;2022-08-16T11:38:05;10.93;;;5.32;;
52208;SDS011;38507;53.132;6.394;2022-08-16T11:40:49;8.32;;;5.55;;
52208;SDS011;38507;53.132;6.394;2022-08-16T11:43:18;13.50;;;6.18;;
52208;SDS011;38507;53.132;6.394;2022-08-16T11:45:49;11.25;;;6.10;;
52208;SDS011;38507;53.132;6.394;2022-08-16T11:48:15;7.75;;;6.53;;
52208;SDS011;38507;53.132;6.394;2022-08-16T11:50:43;9.18;;;5.30;;
52208;SDS011;38507;53.132;6.394;2022-08-16T11:53:09;12.32;;;5.72;;
52208;SDS011;38507;53.132;6.394;2022-08-16T11:55:37;8.80;;;5.10;;
52208;SDS011;38507;53.132;6.394;2022-08-16T11:58:05;8.95;;;5.20;;
52208;SDS011;38507;53.132;6.394;2022-08-16T12:00:33;10.15;;;5.57;;
52208;SDS011;38507;53.132;6.394;2022-08-16T12:03:01;10.32;;;5.88;;
52208;SDS011;38507;53.132;6.394;2022-08-16T12:05:28;12.63;;;5.28;;
52208;SDS011;38507;53.132;6.394;2022-08-16T12:07:54;8.80;;;5.22;;
52208;SDS011;38507;53.132;6.394;2022-08-16T12:10:27;9.05;;;5.05;;
52208;SDS011;38507;53.132;6.394;2022-08-16T12:12:53;6.70;;;4.97;;
52208;SDS011;38507;53.132;6.394;2022-08-16T12:15:19;6.65;;;4.80;;
52208;SDS011;38507;53.132;6.394;2022-08-16T12:17:45;8.75;;;4.57;;
52208;SDS011;38507;53.132;6.394;2022-08-16T12:20:15;10.23;;;5.03;;
52208;SDS011;38507;53.132;6.394;2022-08-16T12:22:43;9.32;;;4.78;;
52208;SDS011;38507;53.132;6.394;2022-08-16T12:25:11;10.00;;;5.13;;
52208;SDS011;38507;53.132;6.394;2022-08-16T12:27:39;10.10;;;4.47;;
52208;SDS011;38507;53.132;6.394;2022-08-16T12:30:06;9.68;;;4.78;;
52208;SDS011;38507;53.132;6.394;2022-08-16T12:32:33;6.35;;;4.15;;
52208;SDS011;38507;53.132;6.394;2022-08-16T12:34:59;13.05;;;4.45;;
52208;SDS011;38507;53.132;6.394;2022-08-16T12:37:26;7.38;;;3.78;;
52208;SDS011;38507;53.132;6.394;2022-08-16T12:39:53;8.85;;;4.25;;
52208;SDS011;38507;53.132;6.394;2022-08-16T12:42:21;7.43;;;4.00;;
52208;SDS011;38507;53.132;6.394;2022-08-16T12:44:47;8.70;;;4.63;;
52208;SDS011;38507;53.132;6.394;2022-08-16T12:47:13;8.50;;;4.38;;
52208;SDS011;38507;53.132;6.394;2022-08-16T12:49:59;10.85;;;3.95;;
52208;SDS011;38507;53.132;6.394;2022-08-16T12:52:25;12.30;;;4.20;;
52208;SDS011;38507;53.132;6.394;2022-08-16T12:54:52;12.48;;;6.53;;
52208;SDS011;38507;53.132;6.394;2022-08-16T12:57:19;9.95;;;5.90;;
52208;SDS011;38507;53.132;6.394;2022-08-16T12:59:49;10.73;;;6.13;;
52208;SDS011;38507;53.132;6.394;2022-08-16T13:02:15;8.60;;;5.30;;
52208;SDS011;38507;53.132;6.394;2022-08-16T13:04:41;12.70;;;6.50;;
52208;SDS011;38507;53.132;6.394;2022-08-16T13:07:07;16.80;;;7.55;;
52208;SDS011;38507;53.132;6.394;2022-08-16T13:09:32;13.10;;;7.50;;
52208;SDS011;38507;53.132;6.394;2022-08-16T13:12:01;16.05;;;8.80;;
52208;SDS011;38507;53.132;6.394;2022-08-16T13:14:41;9.77;;;7.35;;
52208;SDS011;38507;53.132;6.394;2022-08-16T13:17:15;15.98;;;9.63;;
52208;SDS011;38507;53.132;6.394;2022-08-16T13:19:46;12.75;;;8.18;;
52208;SDS011;38507;53.132;6.394;2022-08-16T13:22:13;13.57;;;8.38;;
52208;SDS011;38507;53.132;6.394;2022-08-16T13:24:39;15.00;;;9.30;;
52208;SDS011;38507;53.132;6.394;2022-08-16T13:27:05;17.17;;;8.70;;
52208;SDS011;38507;53.132;6.394;2022-08-16T13:29:30;10.73;;;7.68;;
52208;SDS011;38507;53.132;6.394;2022-08-16T13:31:56;10.25;;;7.65;;
52208;SDS011;38507;53.132;6.394;2022-08-16T13:34:22;14.27;;;8.77;;
52208;SDS011;38507;53.132;6.394;2022-08-16T13:36:48;8.75;;;6.55;;
52208;SDS011;38507;53.132;6.394;2022-08-16T13:39:13;9.05;;;7.63;;
52208;SDS011;38507;53.132;6.394;2022-08-16T13:41:40;15.25;;;7.25;;
52208;SDS011;38507;53.132;6.394;2022-08-16T13:44:05;12.57;;;6.72;;
52208;SDS011;38507;53.132;6.394;2022-08-16T13:46:31;13.63;;;8.18;;
52208;SDS011;38507;53.132;6.394;2022-08-16T13:48:57;12.05;;;7.97;;
52208;SDS011;38507;53.132;6.394;2022-08-16T13:51:23;14.77;;;7.47;;
52208;SDS011;38507;53.132;6.394;2022-08-16T13:53:55;15.52;;;7.43;;
52208;SDS011;38507;53.132;6.394;2022-08-16T13:56:22;10.57;;;7.13;;
52208;SDS011;38507;53.132;6.394;2022-08-16T13:58:49;7.60;;;4.90;;
52208;SDS011;38507;53.132;6.394;2022-08-16T14:01:15;8.77;;;6.18;;
52208;SDS011;38507;53.132;6.394;2022-08-16T14:03:42;17.33;;;6.57;;
52208;SDS011;38507;53.132;6.394;2022-08-16T14:06:09;10.60;;;6.95;;
52208;SDS011;38507;53.132;6.394;2022-08-16T14:08:35;9.80;;;7.03;;
52208;SDS011;38507;53.132;6.394;2022-08-16T14:11:03;10.38;;;6.50;;
52208;SDS011;38507;53.132;6.394;2022-08-16T14:13:30;13.15;;;6.13;;
52208;SDS011;38507;53.132;6.394;2022-08-16T14:15:56;13.75;;;7.80;;
52208;SDS011;38507;53.132;6.394;2022-08-16T14:18:22;12.68;;;7.30;;
52208;SDS011;38507;53.132;6.394;2022-08-16T14:20:48;10.52;;;6.75;;
52208;SDS011;38507;53.132;6.394;2022-08-16T14:23:14;13.18;;;6.97;;
52208;SDS011;38507;53.132;6.394;2022-08-16T14:25:40;12.90;;;7.25;;
52208;SDS011;38507;53.132;6.394;2022-08-16T14:28:05;15.88;;;7.35;;
52208;SDS011;38507;53.132;6.394;2022-08-16T14:30:31;11.60;;;7.30;;
52208;SDS011;38507;53.132;6.394;2022-08-16T14:32:57;13.40;;;6.70;;
52208;SDS011;38507;53.132;6.394;2022-08-16T14:35:26;13.55;;;7.60;;